Time;durP1;ratioP1;P1;durP2;ratioP2;P2;SDS_P1;SDS_P2;PMS_P1;PMS_P2;Temp;Humidity;BMP_temperature;BMP_pressure;BME280_temperature;BME280_humidity;BME280_pressure;Samples;Min_cycle;Max_cycle;Signal;HPM_P1;HPM_P2
2022/09/17 00:02:21;;;;;;;0.13;0.13;;;12.00;99.90;;;;;;4857467;29;20447;-83
2022/09/17 00:04:48;;;;;;;0.10;0.10;;;12.00;99.90;;;;;;4874555;29;20072;-82
2022/09/17 00:07:13;;;;;;;0.10;0.10;;;11.90;99.90;;;;;;4874671;29;20573;-83
2022/09/17 00:09:39;;;;;;;0.10;0.10;;;11.90;99.90;;;;;;4876594;29;20124;-81
2022/09/17 00:12:05;;;;;;;0.20;0.20;;;11.90;99.90;;;;;;4860118;29;20080;-83
2022/09/17 00:14:30;;;;;;;0.10;0.10;;;11.90;99.90;;;;;;4875118;29;20184;-83
2022/09/17 00:16:56;;;;;;;0.20;0.20;;;12.00;99.90;;;;;;4873824;29;20055;-82
2022/09/17 00:19:22;;;;;;;0.17;0.17;;;12.00;99.90;;;;;;4858911;29;20041;-83
2022/09/17 00:21:48;;;;;;;0.20;0.20;;;11.90;99.90;;;;;;4875331;29;20053;-82
2022/09/17 00:24:15;;;;;;;0.20;0.20;;;11.90;99.90;;;;;;4873376;29;20048;-81
2022/09/17 00:26:41;;;;;;;0.20;0.20;;;12.00;99.90;;;;;;4858806;29;20068;-82
2022/09/17 00:29:08;;;;;;;0.15;0.15;;;12.00;99.90;;;;;;4857694;29;20489;-84
2022/09/17 00:31:34;;;;;;;0.10;0.10;;;12.00;99.90;;;;;;4873615;29;20151;-84
2022/09/17 00:34:01;;;;;;;0.20;0.20;;;11.90;99.90;;;;;;4858048;29;20493;-84
2022/09/17 00:36:27;;;;;;;0.20;0.20;;;11.90;99.90;;;;;;4873664;29;20131;-84
2022/09/17 00:38:55;;;;;;;0.20;0.20;;;11.80;99.90;;;;;;4859738;29;20136;-84
2022/09/17 00:41:23;;;;;;;0.10;0.10;;;11.80;99.90;;;;;;4872659;29;20063;-83
2022/09/17 00:44:00;;;;;;;0.20;0.20;;;11.70;99.90;;;;;;4857058;29;20041;-84
2022/09/17 00:46:37;;;;;;;0.10;0.10;;;11.70;99.90;;;;;;4872386;29;20061;-83
2022/09/17 00:49:29;;;;;;;0.15;0.15;;;11.70;99.90;;;;;;4858472;29;20052;-84
2022/09/17 00:52:08;;;;;;;0.20;0.20;;;11.70;99.90;;;;;;4856179;29;20057;-83
2022/09/17 00:54:37;;;;;;;0.20;0.20;;;11.50;99.90;;;;;;4875716;29;20068;-83
2022/09/17 00:57:03;;;;;;;0.20;0.20;;;11.50;99.90;;;;;;4874285;29;20064;-84
2022/09/17 00:59:28;;;;;;;0.10;0.10;;;11.50;99.90;;;;;;4858910;29;20657;-84
2022/09/17 01:01:54;;;;;;;0.10;0.10;;;11.50;99.90;;;;;;4873781;29;20060;-83
2022/09/17 01:04:23;;;;;;;0.10;0.10;;;11.40;99.90;;;;;;4856337;29;20099;-83
2022/09/17 01:07:24;;;;;;;0.20;0.20;;;11.40;99.90;;;;;;4874595;29;20144;-84
2022/09/17 01:09:55;;;;;;;0.10;0.10;;;11.40;99.90;;;;;;4816461;29;20065;-84
2022/09/17 01:12:51;;;;;;;0.20;0.20;;;11.40;99.90;;;;;;4858518;29;20049;-83
2022/09/17 01:15:23;;;;;;;0.20;0.20;;;11.40;99.90;;;;;;4875194;29;20053;-83
2022/09/17 01:17:59;;;;;;;0.20;0.20;;;11.40;99.90;;;;;;4870984;29;20093;-84
2022/09/17 01:20:55;;;;;;;0.20;0.20;;;11.40;99.90;;;;;;4873006;29;20081;-84
2022/09/17 01:23:45;;;;;;;0.20;0.20;;;11.40;99.90;;;;;;4873192;29;20128;-84
2022/09/17 01:26:29;;;;;;;0.20;0.20;;;11.40;99.90;;;;;;4858242;29;20064;-83
2022/09/17 01:29:18;;;;;;;0.20;0.20;;;11.30;99.90;;;;;;4871568;29;20069;-85
2022/09/17 01:31:50;;;;;;;0.20;0.20;;;11.40;99.90;;;;;;4873524;29;20052;-83
2022/09/17 01:34:26;;;;;;;0.20;0.20;;;11.40;99.90;;;;;;4857869;29;20049;-84
2022/09/17 01:37:14;;;;;;;0.20;0.20;;;11.40;99.90;;;;;;4874630;29;20129;-83
2022/09/17 01:39:51;;;;;;;0.20;0.20;;;11.40;99.90;;;;;;4872340;29;20490;-83
2022/09/17 01:42:35;;;;;;;0.20;0.20;;;11.50;99.90;;;;;;4857593;29;20128;-83
2022/09/17 01:45:10;;;;;;;0.10;0.10;;;11.40;99.90;;;;;;4867594;29;20041;-84
2022/09/17 01:47:48;;;;;;;0.10;0.10;;;11.50;99.90;;;;;;4855283;29;20053;-83
2022/09/17 01:50:19;;;;;;;0.10;0.10;;;11.50;99.90;;;;;;4855872;29;20057;-83
2022/09/17 01:52:49;;;;;;;0.20;0.20;;;11.50;99.90;;;;;;4859869;29;20048;-84
2022/09/17 01:55:17;;;;;;;0.20;0.20;;;11.50;99.90;;;;;;4878272;29;20041;-83
2022/09/17 01:57:56;;;;;;;0.10;0.10;;;11.60;99.90;;;;;;4879632;29;20049;-83
2022/09/17 02:00:22;;;;;;;0.10;0.10;;;11.50;99.90;;;;;;4858930;29;20068;-82
2022/09/17 02:03:07;;;;;;;0.20;0.20;;;11.50;99.90;;;;;;4877442;29;20693;-83
2022/09/17 02:05:53;;;;;;;0.20;0.20;;;11.50;99.90;;;;;;4859586;29;20079;-83
2022/09/17 02:08:25;;;;;;;0.20;0.20;;;11.50;99.90;;;;;;4878824;29;20048;-82
2022/09/17 02:11:06;;;;;;;0.20;0.20;;;11.50;99.90;;;;;;4877524;29;20041;-83
2022/09/17 02:13:45;;;;;;;0.20;0.20;;;11.40;99.90;;;;;;4877808;29;20660;-81
2022/09/17 02:16:25;;;;;;;0.17;0.17;;;11.40;99.90;;;;;;4875526;29;20045;-84
2022/09/17 02:19:15;;;;;;;0.20;0.20;;;11.40;99.90;;;;;;4877573;29;20069;-82
2022/09/17 02:22:11;;;;;;;0.10;0.10;;;11.40;99.90;;;;;;4875739;29;20045;-83
2022/09/17 02:25:10;;;;;;;0.20;0.20;;;11.30;99.90;;;;;;4878885;29;20056;-83
2022/09/17 02:27:48;;;;;;;0.20;0.20;;;11.30;99.90;;;;;;4819377;29;20476;-83
2022/09/17 02:30:15;;;;;;;0.20;0.20;;;11.30;99.90;;;;;;4861559;29;20049;-83
2022/09/17 02:32:41;;;;;;;0.20;0.20;;;11.30;99.90;;;;;;4860022;29;20036;-83
2022/09/17 02:35:08;;;;;;;0.10;0.10;;;11.50;99.90;;;;;;4858072;29;20053;-83
2022/09/17 02:37:34;;;;;;;0.20;0.20;;;11.40;99.90;;;;;;4877377;29;20080;-82
2022/09/17 02:40:00;;;;;;;0.10;0.10;;;11.30;99.90;;;;;;4875755;29;20088;-81
2022/09/17 02:42:55;;;;;;;0.20;0.20;;;11.30;99.90;;;;;;4875660;29;20124;-81
2022/09/17 02:45:48;;;;;;;0.20;0.20;;;11.40;99.90;;;;;;4869546;29;20060;-82
2022/09/17 02:48:31;;;;;;;0.30;0.30;;;11.30;99.90;;;;;;4872791;29;20049;-82
2022/09/17 02:51:21;;;;;;;0.20;0.20;;;11.30;99.90;;;;;;4858396;29;20123;-82
2022/09/17 02:54:10;;;;;;;0.20;0.20;;;11.40;99.90;;;;;;4858955;29;20049;-81
2022/09/17 02:56:54;;;;;;;0.13;0.13;;;11.40;99.90;;;;;;4874199;29;20516;-81
2022/09/17 02:59:44;;;;;;;0.20;0.20;;;11.40;99.90;;;;;;4860886;29;20430;-82
2022/09/17 03:02:32;;;;;;;0.10;0.10;;;11.40;99.90;;;;;;4856703;29;20497;-81
2022/09/17 03:04:59;;;;;;;0.20;0.20;;;11.40;99.90;;;;;;4854092;29;20041;-82
2022/09/17 03:07:27;;;;;;;0.15;0.15;;;11.40;99.90;;;;;;4876388;29;20045;-81
2022/09/17 03:09:53;;;;;;;0.20;0.20;;;11.90;99.90;;;;;;4876337;29;20124;-84
2022/09/17 03:12:19;;;;;;;0.20;0.20;;;11.40;99.90;;;;;;4875657;29;20623;-83
2022/09/17 03:14:45;;;;;;;0.10;0.10;;;11.40;99.90;;;;;;4877395;29;20078;-82
2022/09/17 03:17:11;;;;;;;0.20;0.20;;;11.40;99.90;;;;;;4874069;29;20120;-82
2022/09/17 03:19:37;;;;;;;0.20;0.20;;;11.40;99.90;;;;;;4876150;29;20397;-82
2022/09/17 03:22:03;;;;;;;0.20;0.20;;;11.40;99.90;;;;;;4875281;29;20045;-82
2022/09/17 03:24:28;;;;;;;0.10;0.10;;;11.30;99.90;;;;;;4873145;29;20064;-82
2022/09/17 03:26:54;;;;;;;0.10;0.10;;;11.40;99.90;;;;;;4875890;29;20053;-83
2022/09/17 03:29:19;;;;;;;0.20;0.20;;;11.30;99.90;;;;;;4876404;29;20045;-82
2022/09/17 03:31:45;;;;;;;0.20;0.20;;;11.30;99.90;;;;;;4857012;29;20097;-83
2022/09/17 03:34:11;;;;;;;0.13;0.13;;;11.30;99.90;;;;;;4874914;29;20056;-82
2022/09/17 03:36:36;;;;;;;0.10;0.10;;;11.30;99.90;;;;;;4874204;29;20470;-83
2022/09/17 03:39:02;;;;;;;0.20;0.20;;;11.20;99.90;;;;;;4876216;29;20129;-83
2022/09/17 03:41:28;;;;;;;0.10;0.10;;;11.20;99.90;;;;;;4874958;29;20128;-82
2022/09/17 03:43:53;;;;;;;0.20;0.20;;;11.20;99.90;;;;;;4859727;29;20056;-81
2022/09/17 03:46:19;;;;;;;0.17;0.17;;;11.20;99.90;;;;;;4858220;29;20045;-80
2022/09/17 03:48:45;;;;;;;0.20;0.20;;;11.20;99.90;;;;;;4876951;29;20593;-82
2022/09/17 03:51:11;;;;;;;0.20;0.20;;;11.20;99.90;;;;;;4874438;29;20102;-82
2022/09/17 03:53:36;;;;;;;0.20;0.20;;;11.20;99.90;;;;;;4858163;29;20378;-82
2022/09/17 03:56:04;;;;;;;0.20;0.20;;;11.20;99.90;;;;;;4859243;29;20045;-82
2022/09/17 03:58:30;;;;;;;0.20;0.20;;;11.20;99.90;;;;;;4858632;29;20049;-82
2022/09/17 04:00:56;;;;;;;0.20;0.20;;;11.20;99.90;;;;;;4856587;29;20161;-82
2022/09/17 04:03:27;;;;;;;0.20;0.20;;;11.10;99.90;;;;;;4875131;29;20037;-82
2022/09/17 04:05:53;;;;;;;0.10;0.10;;;11.10;99.90;;;;;;4874162;29;20059;-82
2022/09/17 04:08:19;;;;;;;0.20;0.20;;;11.10;99.90;;;;;;4876032;29;20409;-83
2022/09/17 04:10:46;;;;;;;0.20;0.20;;;11.10;99.90;;;;;;4873720;29;20045;-82
2022/09/17 04:13:13;;;;;;;0.20;0.20;;;11.00;99.90;;;;;;4856785;29;20057;-82
2022/09/17 04:15:39;;;;;;;0.20;0.20;;;11.10;99.90;;;;;;4858679;29;20045;-82
2022/09/17 04:18:05;;;;;;;0.10;0.10;;;11.00;99.90;;;;;;4875927;29;20519;-82
2022/09/17 04:20:30;;;;;;;0.20;0.20;;;11.00;99.90;;;;;;4858740;29;20128;-83
2022/09/17 04:22:56;;;;;;;0.10;0.10;;;11.00;99.90;;;;;;4857443;29;20148;-84
2022/09/17 04:25:22;;;;;;;0.20;0.20;;;11.00;99.90;;;;;;4858559;29;20060;-84
2022/09/17 04:27:48;;;;;;;0.20;0.20;;;11.00;99.90;;;;;;4874801;29;20399;-83
2022/09/17 04:30:14;;;;;;;0.20;0.20;;;10.90;99.90;;;;;;4857348;29;20048;-83
2022/09/17 04:32:41;;;;;;;0.20;0.20;;;11.00;99.90;;;;;;4873448;29;20052;-82
2022/09/17 04:35:07;;;;;;;0.20;0.20;;;11.00;99.90;;;;;;4874809;29;20097;-82
2022/09/17 04:37:33;;;;;;;0.10;0.10;;;11.00;99.90;;;;;;4856977;29;20490;-83
2022/09/17 04:39:58;;;;;;;0.13;0.13;;;11.00;99.90;;;;;;4859019;29;20049;-83
2022/09/17 04:42:24;;;;;;;0.10;0.10;;;11.00;99.90;;;;;;4856597;29;20045;-82
2022/09/17 04:44:49;;;;;;;0.20;0.20;;;11.00;99.90;;;;;;4856736;29;20092;-83
2022/09/17 04:47:15;;;;;;;0.10;0.10;;;11.10;99.90;;;;;;4872954;29;20045;-82
2022/09/17 04:49:41;;;;;;;0.20;0.20;;;11.00;99.90;;;;;;4858643;29;20056;-82
2022/09/17 04:52:06;;;;;;;0.20;0.20;;;11.00;99.90;;;;;;4856329;29;20049;-84
2022/09/17 04:54:32;;;;;;;0.20;0.20;;;11.00;99.90;;;;;;4857213;29;20053;-82
2022/09/17 04:56:59;;;;;;;0.20;0.20;;;11.00;99.90;;;;;;4857052;29;20040;-83
2022/09/17 04:59:24;;;;;;;0.20;0.20;;;11.00;99.90;;;;;;4874423;29;20125;-83
2022/09/17 05:01:50;;;;;;;0.20;0.20;;;10.90;99.90;;;;;;4872699;29;20131;-83
2022/09/17 05:04:15;;;;;;;0.20;0.20;;;11.10;99.90;;;;;;4857096;29;20127;-83
2022/09/17 05:06:41;;;;;;;0.20;0.20;;;11.00;99.90;;;;;;4875283;29;20057;-83
2022/09/17 05:09:07;;;;;;;0.20;0.20;;;11.00;99.90;;;;;;4874890;29;20048;-83
2022/09/17 05:11:33;;;;;;;0.20;0.20;;;11.00;99.90;;;;;;4857382;29;20044;-83
2022/09/17 05:13:58;;;;;;;0.20;0.20;;;11.00;99.90;;;;;;4873116;29;20470;-84
2022/09/17 05:16:24;;;;;;;0.20;0.20;;;11.00;99.90;;;;;;4855647;29;20446;-83
2022/09/17 05:18:50;;;;;;;0.20;0.20;;;11.00;99.90;;;;;;4875099;29;20112;-83
2022/09/17 05:21:17;;;;;;;0.20;0.20;;;11.00;99.90;;;;;;4874748;29;20423;-84
2022/09/17 05:23:42;;;;;;;0.20;0.20;;;11.00;99.90;;;;;;4858400;29;20053;-83
2022/09/17 05:26:09;;;;;;;0.20;0.20;;;11.20;99.90;;;;;;4878135;29;20060;-82
2022/09/17 05:28:34;;;;;;;0.20;0.20;;;10.60;99.90;;;;;;4860725;29;20132;-83
2022/09/17 05:31:01;;;;;;;0.20;0.20;;;11.10;99.90;;;;;;4859898;29;20125;-82
2022/09/17 05:33:27;;;;;;;0.20;0.20;;;11.10;99.90;;;;;;4877357;29;20053;-82
2022/09/17 05:35:53;;;;;;;0.20;0.20;;;11.10;99.90;;;;;;4877680;29;20334;-83
2022/09/17 05:38:18;;;;;;;0.20;0.20;;;11.10;99.90;;;;;;4877234;29;20037;-82
2022/09/17 05:40:44;;;;;;;0.20;0.20;;;11.10;99.90;;;;;;4877548;29;20047;-82
2022/09/17 05:43:11;;;;;;;0.20;0.20;;;11.20;99.90;;;;;;4878313;29;20049;-83
2022/09/17 05:45:37;;;;;;;0.20;0.20;;;11.20;99.90;;;;;;4860182;29;20049;-83
2022/09/17 05:48:05;;;;;;;0.15;0.15;;;11.30;99.90;;;;;;4877277;29;20045;-82
2022/09/17 05:50:32;;;;;;;0.20;0.20;;;11.30;99.90;;;;;;4877216;29;20477;-82
2022/09/17 05:53:04;;;;;;;0.20;0.20;;;11.30;99.90;;;;;;4877888;29;20045;-82
2022/09/17 05:55:30;;;;;;;0.20;0.20;;;11.30;99.90;;;;;;4876977;29;20081;-82
2022/09/17 05:57:56;;;;;;;0.20;0.20;;;11.30;99.90;;;;;;4860467;29;20052;-83
2022/09/17 06:00:21;;;;;;;0.20;0.20;;;11.30;99.90;;;;;;4860799;29;20052;-83
2022/09/17 06:02:54;;;;;;;0.20;0.20;;;11.90;99.90;;;;;;4857890;29;20048;-83
2022/09/17 06:05:20;;;;;;;0.20;0.20;;;11.40;99.90;;;;;;4860801;29;20057;-83
2022/09/17 06:07:46;;;;;;;0.20;0.20;;;11.50;99.90;;;;;;4876858;29;20041;-82
2022/09/17 06:10:11;;;;;;;0.20;0.20;;;11.50;99.90;;;;;;4884705;29;20051;-83
2022/09/17 06:12:39;;;;;;;0.10;0.10;;;11.50;99.90;;;;;;4860760;29;20397;-82
2022/09/17 06:15:06;;;;;;;0.20;0.20;;;11.60;99.90;;;;;;4878583;29;20415;-82
2022/09/17 06:17:35;;;;;;;0.15;0.15;;;11.60;99.90;;;;;;4878086;29;20049;-82
2022/09/17 06:20:02;;;;;;;0.20;0.20;;;11.50;99.90;;;;;;4878263;29;20048;-84
2022/09/17 06:22:28;;;;;;;0.10;0.10;;;11.50;99.90;;;;;;4862220;29;20109;-83
2022/09/17 06:24:53;;;;;;;0.20;0.20;;;11.40;99.90;;;;;;4859471;29;20077;-83
2022/09/17 06:27:19;;;;;;;0.10;0.10;;;11.50;99.90;;;;;;4878434;29;20049;-80
2022/09/17 06:29:44;;;;;;;0.13;0.13;;;11.30;99.90;;;;;;4861246;29;20060;-79
2022/09/17 06:32:14;;;;;;;0.20;0.20;;;11.30;99.90;;;;;;4863451;29;20139;-79
2022/09/17 06:34:40;;;;;;;0.20;0.20;;;11.30;99.90;;;;;;4875763;29;20053;-78
2022/09/17 06:37:06;;;;;;;0.20;0.20;;;11.40;99.90;;;;;;4865115;29;20449;-79
2022/09/17 06:39:32;;;;;;;0.20;0.20;;;11.20;99.90;;;;;;4877459;29;20044;-79
2022/09/17 06:41:58;;;;;;;0.15;0.15;;;11.30;99.90;;;;;;4877560;29;20049;-79
2022/09/17 06:44:23;;;;;;;0.15;0.15;;;11.40;99.90;;;;;;4859344;29;20120;-80
2022/09/17 06:46:50;;;;;;;0.20;0.20;;;11.40;99.90;;;;;;4857862;29;20052;-81
2022/09/17 06:49:16;;;;;;;0.10;0.10;;;11.50;99.90;;;;;;4860164;29;20084;-80
2022/09/17 06:51:42;;;;;;;0.20;0.20;;;11.50;99.90;;;;;;4875448;29;20045;-80
2022/09/17 06:54:08;;;;;;;0.10;0.10;;;11.50;99.90;;;;;;4859662;29;20048;-80
2022/09/17 06:56:33;;;;;;;0.10;0.10;;;11.50;99.90;;;;;;4877384;29;20052;-80
2022/09/17 06:59:00;;;;;;;0.20;0.20;;;11.50;99.90;;;;;;4878632;29;20103;-80
2022/09/17 07:01:25;;;;;;;0.20;0.20;;;11.50;99.90;;;;;;4857684;29;20060;-79
2022/09/17 07:03:51;;;;;;;0.20;0.20;;;11.50;99.90;;;;;;4874095;29;20045;-78
2022/09/17 07:06:17;;;;;;;0.20;0.20;;;11.50;99.90;;;;;;4857681;29;20151;-77
2022/09/17 07:08:42;;;;;;;0.20;0.20;;;11.50;99.90;;;;;;4874493;29;20115;-79
2022/09/17 07:11:08;;;;;;;0.20;0.20;;;11.60;99.90;;;;;;4873632;29;20049;-78
2022/09/17 07:13:34;;;;;;;0.20;0.20;;;11.70;99.90;;;;;;4855880;29;20044;-79
2022/09/17 07:16:02;;;;;;;0.10;0.10;;;11.70;99.90;;;;;;4873983;29;20041;-79
2022/09/17 07:18:27;;;;;;;0.10;0.10;;;11.80;99.90;;;;;;4858504;29;20057;-79
2022/09/17 07:20:54;;;;;;;0.20;0.20;;;11.80;99.90;;;;;;4876988;29;20485;-79
2022/09/17 07:23:25;;;;;;;0.20;0.20;;;11.70;99.90;;;;;;4858107;29;20395;-78
2022/09/17 07:26:00;;;;;;;0.20;0.20;;;11.60;99.90;;;;;;4871222;29;20060;-78
2022/09/17 07:28:26;;;;;;;0.20;0.20;;;11.60;99.90;;;;;;4874165;29;20552;-79
2022/09/17 07:30:52;;;;;;;0.10;0.10;;;11.60;99.90;;;;;;4859280;29;20045;-79
2022/09/17 07:33:22;;;;;;;0.20;0.20;;;11.60;99.90;;;;;;4855564;29;20075;-78
2022/09/17 07:36:01;;;;;;;0.20;0.20;;;11.60;99.90;;;;;;4859435;29;20049;-78
2022/09/17 07:38:28;;;;;;;0.20;0.20;;;11.60;99.90;;;;;;4858698;29;20045;-79
2022/09/17 07:40:57;;;;;;;0.20;0.20;;;11.70;99.90;;;;;;4858775;29;20076;-79
2022/09/17 07:43:24;;;;;;;0.20;0.20;;;12.40;99.90;;;;;;4857422;29;20048;-80
2022/09/17 07:45:50;;;;;;;0.13;0.13;;;11.70;99.90;;;;;;4873759;29;20457;-79
2022/09/17 07:48:15;;;;;;;0.10;0.10;;;11.70;99.90;;;;;;4875129;29;20037;-79
2022/09/17 07:50:41;;;;;;;0.20;0.20;;;11.90;99.90;;;;;;4874526;29;20404;-78
2022/09/17 07:53:07;;;;;;;0.20;0.20;;;11.90;99.90;;;;;;4863851;29;20093;-80
2022/09/17 07:55:32;;;;;;;0.10;0.10;;;11.90;99.90;;;;;;4883359;29;20592;-80
2022/09/17 07:57:58;;;;;;;0.30;0.30;;;12.00;99.90;;;;;;4860359;29;20060;-80
2022/09/17 08:00:24;;;;;;;0.20;0.20;;;11.90;99.90;;;;;;4860864;29;20553;-80
2022/09/17 08:02:56;;;;;;;0.20;0.20;;;12.00;99.90;;;;;;4876640;29;20045;-80
2022/09/17 08:05:24;;;;;;;0.10;0.10;;;12.00;99.90;;;;;;4860041;29;20279;-80
2022/09/17 08:07:54;;;;;;;0.15;0.15;;;12.00;99.90;;;;;;4863372;29;20568;-80
2022/09/17 08:10:21;;;;;;;0.17;0.17;;;11.90;99.90;;;;;;4866787;29;20405;-79
2022/09/17 08:12:48;;;;;;;0.10;0.10;;;11.90;99.90;;;;;;4879148;29;20040;-80
2022/09/17 08:15:15;;;;;;;0.20;0.20;;;12.10;99.90;;;;;;4876113;29;20053;-80
2022/09/17 08:17:45;;;;;;;0.20;0.20;;;12.00;99.90;;;;;;4862117;29;20120;-79
2022/09/17 08:20:12;;;;;;;0.15;0.15;;;12.10;99.90;;;;;;4876720;29;20049;-79
2022/09/17 08:22:37;;;;;;;0.20;0.20;;;12.20;99.90;;;;;;4860580;29;20064;-79
2022/09/17 08:25:05;;;;;;;0.20;0.20;;;12.30;99.90;;;;;;4859948;29;20360;-80
2022/09/17 08:27:31;;;;;;;0.20;0.20;;;12.30;99.90;;;;;;4859329;29;20655;-79
2022/09/17 08:29:57;;;;;;;0.17;0.17;;;12.40;99.90;;;;;;4876216;29;20502;-79
2022/09/17 08:32:24;;;;;;;0.10;0.10;;;12.40;99.90;;;;;;4856227;29;20109;-78
2022/09/17 08:34:49;;;;;;;0.10;0.10;;;12.40;99.90;;;;;;4860653;29;20112;-79
2022/09/17 08:37:15;;;;;;;0.10;0.10;;;12.50;99.90;;;;;;4860464;29;20135;-79
2022/09/17 08:39:41;;;;;;;0.10;0.10;;;12.60;99.90;;;;;;4876562;29;20082;-79
2022/09/17 08:42:31;;;;;;;0.20;0.20;;;12.70;99.90;;;;;;4871448;29;20508;-78
2022/09/17 08:45:01;;;;;;;0.20;0.20;;;12.80;99.90;;;;;;4856656;29;20057;-80
2022/09/17 08:47:30;;;;;;;0.20;0.20;;;12.80;99.90;;;;;;4854186;29;20053;-79
2022/09/17 08:49:57;;;;;;;0.20;0.20;;;13.00;99.90;;;;;;4872757;29;20045;-80
2022/09/17 08:52:47;;;;;;;0.20;0.20;;;13.10;99.90;;;;;;4872830;29;20048;-79
2022/09/17 08:55:33;;;;;;;0.15;0.15;;;13.20;99.90;;;;;;4856101;29;20148;-79
2022/09/17 08:57:59;;;;;;;0.20;0.20;;;13.20;99.90;;;;;;4856405;29;20052;-79
2022/09/17 09:00:28;;;;;;;0.20;0.20;;;13.10;99.90;;;;;;4872276;29;20053;-79
2022/09/17 09:03:15;;;;;;;0.20;0.20;;;13.00;99.90;;;;;;4853654;29;20845;-79
2022/09/17 09:05:54;;;;;;;0.20;0.20;;;12.70;99.90;;;;;;4873025;29;20052;-79
2022/09/17 09:08:29;;;;;;;0.10;0.10;;;12.60;99.90;;;;;;4854400;29;20055;-75
2022/09/17 09:11:00;;;;;;;0.20;0.20;;;12.50;99.90;;;;;;4870450;29;20061;-79
2022/09/17 09:13:56;;;;;;;0.20;0.20;;;12.50;99.90;;;;;;4855753;29;20072;-79
2022/09/17 09:16:29;;;;;;;0.20;0.20;;;12.40;99.90;;;;;;4852872;29;20099;-80
2022/09/17 09:19:03;;;;;;;0.20;0.20;;;12.40;99.90;;;;;;4855326;29;20049;-79
2022/09/17 09:21:45;;;;;;;0.15;0.15;;;12.30;99.90;;;;;;4853226;29;20136;-79
2022/09/17 09:24:24;;;;;;;0.20;0.20;;;12.40;99.90;;;;;;4855086;29;20064;-85
2022/09/17 09:27:20;;;;;;;0.20;0.20;;;12.30;99.90;;;;;;4871281;29;20056;-80
2022/09/17 09:30:05;;;;;;;0.20;0.20;;;12.40;99.90;;;;;;4868703;29;20053;-80
2022/09/17 09:32:46;;;;;;;0.17;0.17;;;12.40;99.90;;;;;;4855225;29;20061;-80
2022/09/17 09:35:23;;;;;;;0.20;0.20;;;12.40;99.90;;;;;;4856172;29;20072;-80
2022/09/17 09:37:58;;;;;;;0.20;0.20;;;12.40;99.90;;;;;;4871211;29;20057;-80
2022/09/17 09:40:35;;;;;;;0.15;0.15;;;12.30;99.90;;;;;;4855448;29;20083;-80
2022/09/17 09:43:10;;;;;;;0.20;0.20;;;12.10;99.90;;;;;;4871669;29;20460;-82
2022/09/17 09:45:41;;;;;;;0.10;0.10;;;12.00;99.90;;;;;;4872218;29;20049;-80
2022/09/17 09:48:29;;;;;;;0.20;0.20;;;12.00;99.90;;;;;;4853442;29;20053;-80
2022/09/17 09:51:16;;;;;;;0.20;0.20;;;11.80;99.90;;;;;;4855289;29;20045;-80
2022/09/17 09:53:42;;;;;;;0.13;0.13;;;11.80;99.90;;;;;;4885324;29;20052;-79
2022/09/17 09:56:34;;;;;;;0.20;0.20;;;11.70;99.90;;;;;;4857440;29;20381;-80
2022/09/17 09:59:00;;;;;;;0.20;0.20;;;11.70;99.90;;;;;;4856444;29;20190;-80
2022/09/17 10:01:27;;;;;;;0.20;0.20;;;11.70;99.90;;;;;;4859824;29;21819;-79
2022/09/17 10:03:57;;;;;;;0.17;0.17;;;11.80;99.90;;;;;;4856780;29;20164;-78
2022/09/17 10:06:23;;;;;;;0.20;0.20;;;11.90;99.90;;;;;;4855475;29;20065;-78
2022/09/17 10:08:49;;;;;;;0.20;0.20;;;11.90;99.90;;;;;;4856257;29;20068;-80
2022/09/17 10:11:23;;;;;;;0.20;0.20;;;11.90;99.90;;;;;;4870078;29;20037;-77
2022/09/17 10:13:48;;;;;;;0.20;0.20;;;11.90;99.90;;;;;;4868974;29;20057;-79
2022/09/17 10:16:20;;;;;;;0.20;0.20;;;12.10;99.90;;;;;;4852935;29;20041;-79
2022/09/17 10:18:46;;;;;;;;;;;12.20;99.90;;;;;;4871597;29;20501;-79
2022/09/17 10:21:29;;;;;;;0.20;0.20;;;12.20;99.90;;;;;;4875782;29;20346;-80
2022/09/17 10:23:55;;;;;;;0.10;0.10;;;12.20;99.90;;;;;;4862214;29;20055;-79
2022/09/17 10:26:39;;;;;;;0.20;0.20;;;12.20;99.90;;;;;;4874638;29;20065;-80
2022/09/17 10:29:15;;;;;;;0.10;0.10;;;12.20;99.90;;;;;;4877448;29;20090;-79
2022/09/17 10:31:52;;;;;;;0.10;0.10;;;12.30;99.90;;;;;;4874436;29;20049;-79
2022/09/17 10:34:36;;;;;;;0.20;0.20;;;12.40;99.90;;;;;;4876405;29;20125;-80
2022/09/17 10:37:01;;;;;;;0.20;0.20;;;12.40;99.90;;;;;;4877023;29;20049;-81
2022/09/17 10:39:31;;;;;;;0.20;0.20;;;12.50;99.90;;;;;;4875602;29;20048;-81
2022/09/17 10:41:59;;;;;;;0.20;0.20;;;12.60;99.90;;;;;;4877884;29;20101;-80
2022/09/17 10:44:27;;;;;;;0.10;0.10;;;12.70;99.90;;;;;;4860752;29;20472;-79
2022/09/17 10:46:54;;;;;;;0.20;0.20;;;12.80;99.90;;;;;;4861191;29;20442;-78
2022/09/17 10:49:37;;;;;;;0.20;0.20;;;12.90;99.90;;;;;;4874546;29;20049;-79
2022/09/17 10:52:37;;;;;;;0.20;0.20;;;13.00;99.90;;;;;;4862321;29;20139;-78
2022/09/17 10:55:14;;;;;;;0.17;0.17;;;13.10;99.90;;;;;;4840897;29;20053;-78
2022/09/17 10:57:53;;;;;;;0.20;0.20;;;13.40;99.90;;;;;;4876375;29;20584;-78
2022/09/17 11:00:22;;;;;;;0.20;0.20;;;13.50;99.90;;;;;;4855485;29;20055;-78
2022/09/17 11:02:59;;;;;;;0.20;0.20;;;13.60;99.90;;;;;;4864377;29;20052;-77
2022/09/17 11:05:28;;;;;;;0.20;0.20;;;13.60;99.90;;;;;;4883797;29;20511;-79
2022/09/17 11:07:59;;;;;;;0.20;0.20;;;13.80;99.90;;;;;;4858884;29;20485;-79
2022/09/17 11:11:05;;;;;;;0.20;0.20;;;13.90;99.90;;;;;;4873075;29;20045;-76
2022/09/17 11:14:07;;;;;;;0.20;0.20;;;14.10;99.90;;;;;;4839306;29;20049;-78
2022/09/17 11:17:05;;;;;;;0.20;0.20;;;14.10;99.90;;;;;;4867192;29;20052;-78
2022/09/17 11:19:54;;;;;;;0.20;0.20;;;14.30;99.90;;;;;;4869550;29;20069;-76
2022/09/17 11:22:28;;;;;;;0.20;0.20;;;14.40;99.90;;;;;;4862246;29;20176;-77
2022/09/17 11:25:25;;;;;;;0.20;0.20;;;14.50;99.90;;;;;;4857667;29;20045;-78
2022/09/17 11:28:20;;;;;;;0.10;0.10;;;14.60;99.90;;;;;;4854329;29;20060;-77
2022/09/17 11:31:03;;;;;;;0.10;0.10;;;14.60;99.90;;;;;;4862144;29;20053;-76
2022/09/17 11:33:38;;;;;;;0.10;0.10;;;14.80;99.90;;;;;;4884230;29;20047;-78
2022/09/17 11:36:14;;;;;;;0.10;0.10;;;14.90;99.90;;;;;;4870570;29;20224;-78
2022/09/17 11:38:52;;;;;;;0.10;0.10;;;15.20;99.90;;;;;;4853836;29;20165;-77
2022/09/17 11:41:34;;;;;;;0.20;0.20;;;15.40;99.90;;;;;;4842495;29;20100;-77
2022/09/17 11:44:15;;;;;;;0.20;0.20;;;15.30;99.90;;;;;;4866261;29;20097;-77
2022/09/17 11:46:55;;;;;;;0.20;0.20;;;15.30;99.90;;;;;;4857064;29;20041;-78
2022/09/17 11:49:32;;;;;;;0.20;0.20;;;15.50;99.90;;;;;;4870230;29;20382;-78
2022/09/17 11:52:23;;;;;;;0.17;0.17;;;15.60;99.90;;;;;;4859150;29;20064;-77
2022/09/17 11:54:53;;;;;;;0.20;0.20;;;15.60;99.90;;;;;;4872520;29;20049;-77
2022/09/17 11:57:23;;;;;;;0.20;0.20;;;15.60;99.90;;;;;;4858279;29;20113;-76
2022/09/17 11:59:58;;;;;;;0.20;0.20;;;15.60;99.90;;;;;;4860299;29;20049;-78
2022/09/17 12:02:46;;;;;;;0.10;0.10;;;15.40;99.90;;;;;;4873231;29;20049;-77
2022/09/17 12:05:44;;;;;;;0.10;0.10;;;15.40;99.90;;;;;;4861752;29;20049;-77
2022/09/17 12:08:16;;;;;;;0.10;0.10;;;15.20;99.90;;;;;;4858363;29;20099;-79
2022/09/17 12:10:50;;;;;;;0.15;0.15;;;15.20;99.90;;;;;;4873778;29;20037;-78
2022/09/17 12:13:41;;;;;;;0.20;0.20;;;15.30;99.90;;;;;;4859125;29;20044;-78
2022/09/17 12:16:30;;;;;;;0.20;0.20;;;15.50;99.90;;;;;;4873528;29;20049;-78
2022/09/17 12:19:10;;;;;;;0.20;0.20;;;15.80;99.90;;;;;;4859975;29;20105;-77
2022/09/17 12:21:46;;;;;;;0.20;0.20;;;16.00;99.90;;;;;;4855016;29;20056;-78
2022/09/17 12:24:22;;;;;;;0.20;0.20;;;16.10;99.90;;;;;;4876192;29;20140;-77
2022/09/17 12:27:16;;;;;;;0.20;0.20;;;16.10;99.90;;;;;;4858422;29;20390;-78
2022/09/17 12:29:51;;;;;;;0.30;0.30;;;16.00;99.90;;;;;;4857193;29;20045;-77
2022/09/17 12:32:34;;;;;;;0.20;0.20;;;15.80;99.90;;;;;;4860619;29;20051;-77
2022/09/17 12:35:16;;;;;;;0.20;0.20;;;15.70;99.90;;;;;;4853797;29;20747;-78
2022/09/17 12:37:57;;;;;;;;;;;15.60;99.90;;;;;;4858554;29;20430;-77
2022/09/17 12:40:42;;;;;;;0.20;0.20;;;15.70;99.90;;;;;;4869154;29;20517;-78
2022/09/17 12:43:29;;;;;;;0.20;0.20;;;15.70;99.90;;;;;;4875319;29;20532;-76
2022/09/17 12:46:33;;;;;;;0.20;0.20;;;15.60;99.90;;;;;;4847560;29;20052;-79
2022/09/17 12:49:25;;;;;;;0.20;0.20;;;15.60;99.90;;;;;;4873691;29;20049;-77
2022/09/17 12:51:56;;;;;;;0.20;0.20;;;15.60;99.90;;;;;;4854849;29;20068;-78
2022/09/17 12:54:50;;;;;;;0.20;0.20;;;15.60;99.90;;;;;;4858535;29;20171;-79
2022/09/17 12:57:37;;;;;;;0.20;0.20;;;15.50;99.90;;;;;;4858265;29;20140;-78
2022/09/17 13:00:12;;;;;;;0.20;0.20;;;15.50;99.90;;;;;;4856210;29;20141;-77
2022/09/17 13:02:48;;;;;;;0.10;0.10;;;15.60;99.90;;;;;;4857639;29;20037;-78
2022/09/17 13:05:38;;;;;;;0.20;0.20;;;15.70;99.90;;;;;;4871706;29;20055;-78
2022/09/17 13:08:29;;;;;;;0.17;0.17;;;15.80;99.90;;;;;;4864991;29;20085;-77
2022/09/17 13:11:13;;;;;;;0.20;0.20;;;15.90;99.90;;;;;;4859221;29;20100;-78
2022/09/17 13:14:24;;;;;;;0.20;0.20;;;16.00;99.90;;;;;;4857876;29;20044;-77
2022/09/17 13:17:06;;;;;;;0.20;0.20;;;15.90;99.90;;;;;;4847570;29;20060;-77
2022/09/17 13:19:43;;;;;;;0.10;0.10;;;15.90;99.90;;;;;;4873087;29;20049;-77